createdAt,value
2023-04-18T00:02:10.017Z,8.07
2023-04-18T00:04:41.126Z,8.73
2023-04-18T00:07:10.920Z,7.80
2023-04-18T00:09:37.314Z,7.68
2023-04-18T00:12:03.806Z,7.25
2023-04-18T00:14:30.145Z,7.53
2023-04-18T00:16:56.490Z,7.80
2023-04-18T00:19:25.322Z,7.35
2023-04-18T00:21:51.837Z,6.22
2023-04-18T00:24:18.160Z,6.13
2023-04-18T00:26:46.527Z,6.78
2023-04-18T00:29:12.866Z,7.15
2023-04-18T00:31:44.144Z,6.80
2023-04-18T00:34:10.484Z,6.35
2023-04-18T00:36:44.273Z,6.63
2023-04-18T00:39:10.585Z,6.38
2023-04-18T00:41:36.880Z,6.13
2023-04-18T00:44:03.225Z,6.50
2023-04-18T00:46:29.598Z,6.40
2023-04-18T00:48:56.075Z,5.45
2023-04-18T00:51:22.449Z,6.07
2023-04-18T00:53:53.736Z,5.90
2023-04-18T00:56:20.128Z,4.57
2023-04-18T00:58:47.816Z,5.25
2023-04-18T01:01:14.143Z,5.60
2023-04-18T01:03:57.933Z,6.35
2023-04-18T01:06:27.399Z,5.43
2023-04-18T01:08:56.806Z,5.68
2023-04-18T01:11:24.059Z,5.03
2023-04-18T01:14:09.592Z,4.50
2023-04-18T01:16:36.105Z,5.32
2023-04-18T01:19:04.170Z,5.50
2023-04-18T01:21:35.217Z,5.85
2023-04-18T01:24:08.633Z,4.80
2023-04-18T01:26:35.002Z,5.20
2023-04-18T01:29:01.398Z,4.45
2023-04-18T01:31:30.153Z,4.80
2023-04-18T01:33:56.500Z,4.55
2023-04-18T01:36:28.141Z,4.63
2023-04-18T01:38:56.878Z,5.10
2023-04-18T01:41:33.839Z,5.10
2023-04-18T01:44:00.809Z,4.68
2023-04-18T01:46:27.659Z,5.20
2023-04-18T01:48:54.218Z,4.28
2023-04-18T01:51:23.137Z,4.70
2023-04-18T01:53:50.725Z,4.85
2023-04-18T01:56:17.277Z,4.20
2023-04-18T01:58:44.873Z,5.03
2023-04-18T02:01:11.438Z,4.63
2023-04-18T02:03:37.926Z,4.55
2023-04-18T02:06:05.337Z,4.60
2023-04-18T02:08:32.983Z,5.28
2023-04-18T02:10:59.295Z,5.25
2023-04-18T02:13:25.616Z,4.28
2023-04-18T02:15:52.009Z,4.93
2023-04-18T02:18:18.324Z,4.45
2023-04-18T02:20:44.733Z,4.45
2023-04-18T02:23:11.169Z,4.30
2023-04-18T02:25:37.503Z,4.63
2023-04-18T02:28:04.030Z,4.53
2023-04-18T02:30:30.557Z,5.32
2023-04-18T02:32:57.899Z,4.68
2023-04-18T02:35:27.918Z,4.78
2023-04-18T02:37:54.239Z,5.70
2023-04-18T02:40:22.953Z,4.43
2023-04-18T02:42:51.847Z,4.70
2023-04-18T02:45:19.098Z,4.15
2023-04-18T02:47:54.715Z,4.35
2023-04-18T02:50:22.927Z,4.95
2023-04-18T02:52:49.262Z,4.53
2023-04-18T02:55:15.737Z,4.22
2023-04-18T02:57:42.024Z,3.97
2023-04-18T03:00:13.208Z,4.15
2023-04-18T03:02:43.014Z,5.15
2023-04-18T03:05:12.491Z,4.53
2023-04-18T03:07:40.959Z,4.53
2023-04-18T03:10:07.568Z,4.72
2023-04-18T03:12:33.871Z,4.85
2023-04-18T03:15:02.554Z,4.35
2023-04-18T03:17:31.959Z,5.55
2023-04-18T03:20:03.806Z,4.20
2023-04-18T03:22:30.107Z,4.55
2023-04-18T03:24:56.400Z,4.68
2023-04-18T03:27:25.150Z,4.53
2023-04-18T03:29:53.867Z,4.88
2023-04-18T03:32:21.430Z,4.43
2023-04-18T03:34:48.881Z,4.75
2023-04-18T03:37:15.198Z,4.90
2023-04-18T03:39:41.554Z,4.50
2023-04-18T03:42:08.051Z,4.90
2023-04-18T03:44:34.468Z,5.18
2023-04-18T03:47:03.228Z,4.82
2023-04-18T03:49:29.513Z,5.28
2023-04-18T03:51:55.860Z,5.07
2023-04-18T03:54:22.153Z,4.95
2023-04-18T03:56:48.445Z,5.05
2023-04-18T03:59:15.993Z,5.00
2023-04-18T04:01:42.334Z,4.85
2023-04-18T04:04:08.722Z,5.13
2023-04-18T04:06:35.266Z,4.93
2023-04-18T04:09:03.849Z,5.10
2023-04-18T04:11:30.248Z,5.25
2023-04-18T04:13:59.069Z,4.72
2023-04-18T04:16:25.537Z,5.20
2023-04-18T04:18:51.938Z,5.15
2023-04-18T04:21:21.148Z,4.55
2023-04-18T04:23:47.994Z,6.03
2023-04-18T04:26:20.988Z,5.35
2023-04-18T04:28:52.417Z,5.60
2023-04-18T04:31:20.337Z,5.07
2023-04-18T04:33:53.554Z,5.15
2023-04-18T04:36:20.061Z,5.60
2023-04-18T04:38:48.512Z,5.07
2023-04-18T04:41:14.994Z,5.28
2023-04-18T04:43:42.464Z,5.03
2023-04-18T04:46:12.004Z,6.10
2023-04-18T04:48:38.576Z,5.18
2023-04-18T04:51:06.134Z,4.95
2023-04-18T04:53:33.602Z,5.47
2023-04-18T04:55:59.940Z,5.57
2023-04-18T04:58:26.744Z,5.32
2023-04-18T05:00:59.080Z,5.20
2023-04-18T05:03:25.556Z,5.60
2023-04-18T05:05:55.923Z,5.97
2023-04-18T05:08:24.718Z,5.55
2023-04-18T05:10:51.017Z,5.47
2023-04-18T05:13:19.973Z,5.97
2023-04-18T05:15:50.204Z,6.13
2023-04-18T05:18:16.596Z,5.97
2023-04-18T05:20:44.014Z,6.63
2023-04-18T05:23:11.436Z,6.47
2023-04-18T05:25:37.950Z,5.75
2023-04-18T05:28:04.665Z,5.45
2023-04-18T05:30:31.174Z,5.18
2023-04-18T05:32:57.600Z,6.15
2023-04-18T05:35:27.419Z,5.47
2023-04-18T05:37:53.908Z,6.32
2023-04-18T05:40:21.681Z,5.30
2023-04-18T05:42:50.713Z,5.97
2023-04-18T05:45:17.257Z,5.57
2023-04-18T05:47:43.662Z,6.63
2023-04-18T05:50:10.527Z,6.07
2023-04-18T05:52:37.994Z,5.40
2023-04-18T05:55:10.270Z,5.25
2023-04-18T05:57:39.707Z,5.68
2023-04-18T06:00:08.601Z,5.20
2023-04-18T06:02:37.496Z,6.30
2023-04-18T06:05:12.447Z,6.03
2023-04-18T06:07:42.405Z,6.10
2023-04-18T06:10:09.203Z,5.93
2023-04-18T06:12:35.578Z,5.70
2023-04-18T06:15:02.516Z,6.70
2023-04-18T06:17:28.837Z,6.10
2023-04-18T06:19:57.696Z,6.90
2023-04-18T06:22:27.009Z,6.03
2023-04-18T06:24:56.235Z,5.25
2023-04-18T06:27:30.576Z,5.57
2023-04-18T06:29:57.674Z,5.10
2023-04-18T06:32:24.126Z,6.10
2023-04-18T06:34:50.476Z,5.88
2023-04-18T06:37:19.837Z,5.45
2023-04-18T06:39:48.518Z,6.03
2023-04-18T06:42:15.906Z,6.03
2023-04-18T06:44:44.651Z,5.55
2023-04-18T06:47:24.270Z,5.68
2023-04-18T06:49:54.329Z,5.95
2023-04-18T06:52:21.695Z,5.13
2023-04-18T06:54:48.090Z,5.18
2023-04-18T06:57:14.797Z,6.03
2023-04-18T06:59:41.175Z,6.28
2023-04-18T07:02:08.458Z,6.32
2023-04-18T07:04:38.369Z,5.45
2023-04-18T07:07:09.872Z,6.13
2023-04-18T07:09:38.543Z,5.80
2023-04-18T07:12:06.012Z,5.45
2023-04-18T07:14:34.275Z,6.20
2023-04-18T07:17:03.935Z,5.53
2023-04-18T07:19:32.580Z,5.35
2023-04-18T07:21:58.923Z,4.93
2023-04-18T07:24:25.345Z,5.40
2023-04-18T07:26:54.488Z,5.30
2023-04-18T07:29:21.497Z,5.35
2023-04-18T07:31:48.446Z,4.90
2023-04-18T07:34:15.324Z,5.82
2023-04-18T07:36:42.371Z,5.47
2023-04-18T07:39:09.099Z,5.60
2023-04-18T07:41:35.618Z,4.95
2023-04-18T07:44:03.348Z,5.07
2023-04-18T07:46:29.763Z,5.07
2023-04-18T07:48:58.886Z,5.82
2023-04-18T07:51:29.338Z,5.20
2023-04-18T07:54:06.125Z,4.78
2023-04-18T07:56:41.275Z,4.75
2023-04-18T07:59:07.635Z,5.15
2023-04-18T08:01:34.173Z,4.60
2023-04-18T08:04:01.100Z,4.70
2023-04-18T08:06:28.493Z,3.55
2023-04-18T08:08:55.684Z,4.85
2023-04-18T08:11:29.402Z,4.40
2023-04-18T08:13:56.000Z,4.90
2023-04-18T08:16:22.353Z,4.78
2023-04-18T08:18:48.705Z,4.75
2023-04-18T08:21:19.133Z,4.45
2023-04-18T08:23:46.599Z,4.22
2023-04-18T08:26:12.977Z,5.03
2023-04-18T08:28:39.363Z,4.47
2023-04-18T08:31:05.710Z,3.85
2023-04-18T08:33:32.285Z,4.07
2023-04-18T08:36:02.069Z,4.35
2023-04-18T08:38:30.818Z,4.47
2023-04-18T08:41:00.438Z,4.30
2023-04-18T08:43:26.852Z,4.05
2023-04-18T08:45:58.397Z,4.00
2023-04-18T08:48:24.960Z,3.75
2023-04-18T08:50:57.463Z,4.60
2023-04-18T08:53:24.178Z,4.30
2023-04-18T08:55:57.097Z,4.80
2023-04-18T08:58:24.749Z,3.40
2023-04-18T09:00:52.292Z,4.20
2023-04-18T09:03:39.710Z,4.22
2023-04-18T09:06:14.166Z,4.30
2023-04-18T09:08:41.851Z,3.55
2023-04-18T09:11:30.748Z,3.70
2023-04-18T09:14:00.242Z,3.20
2023-04-18T09:16:27.754Z,3.40
2023-04-18T09:21:39.301Z,3.60
2023-04-18T09:24:19.260Z,2.88
2023-04-18T09:26:45.790Z,3.08
2023-04-18T09:29:12.510Z,3.13
2023-04-18T09:31:59.438Z,2.83
2023-04-18T09:34:26.765Z,2.83
2023-04-18T09:37:07.612Z,3.45
2023-04-18T09:39:34.324Z,3.22
2023-04-18T09:42:01.979Z,3.20
2023-04-18T09:44:28.484Z,4.03
2023-04-18T09:46:54.981Z,3.13
2023-04-18T09:49:22.352Z,3.80
2023-04-18T09:51:52.564Z,4.32
2023-04-18T09:54:19.700Z,3.80
2023-04-18T09:56:47.240Z,4.03
2023-04-18T09:59:19.838Z,3.95
2023-04-18T10:01:49.363Z,3.33
2023-04-18T10:04:16.967Z,3.70
2023-04-18T10:06:52.138Z,3.47
2023-04-18T10:09:18.573Z,3.63
2023-04-18T10:11:45.411Z,3.42
2023-04-18T10:19:31.186Z,2.85
2023-04-18T10:27:51.218Z,3.40
2023-04-18T10:30:38.078Z,3.13
2023-04-18T10:33:29.922Z,2.80
2023-04-18T10:36:05.282Z,3.80
2023-04-18T10:38:36.090Z,3.20
2023-04-18T10:41:33.771Z,3.40
2023-04-18T10:44:07.623Z,2.50
2023-04-18T10:46:39.723Z,2.92
2023-04-18T10:49:16.454Z,2.95
2023-04-18T10:51:51.608Z,2.15
2023-04-18T10:54:37.715Z,3.35
2023-04-18T10:57:05.143Z,2.95
2023-04-18T10:59:34.417Z,3.28
2023-04-18T11:02:23.190Z,3.70
2023-04-18T11:04:53.885Z,3.22
2023-04-18T11:07:37.386Z,3.80
2023-04-18T11:10:06.127Z,3.03
2023-04-18T11:12:36.444Z,3.53
2023-04-18T11:15:09.486Z,3.85
2023-04-18T11:17:35.991Z,2.95
2023-04-18T11:20:21.521Z,4.20
2023-04-18T11:22:50.278Z,3.78
2023-04-18T11:25:18.203Z,3.25
2023-04-18T11:27:46.354Z,4.13
2023-04-18T11:30:14.620Z,3.60
2023-04-18T11:32:41.409Z,3.58
2023-04-18T11:35:12.574Z,4.28
2023-04-18T11:37:40.214Z,3.53
2023-04-18T11:40:10.991Z,3.85
2023-04-18T11:42:41.460Z,3.85
2023-04-18T11:45:15.373Z,4.63
2023-04-18T11:47:48.774Z,4.10
2023-04-18T11:50:15.143Z,4.28
2023-04-18T11:52:42.148Z,4.90
2023-04-18T11:55:11.851Z,4.10
2023-04-18T11:57:40.065Z,4.50
2023-04-18T12:00:07.936Z,4.63
2023-04-18T12:02:46.410Z,4.03
2023-04-18T12:05:25.305Z,4.88
2023-04-18T12:08:08.678Z,4.93
2023-04-18T12:10:39.907Z,4.68
2023-04-18T12:13:08.366Z,4.95
2023-04-18T12:15:38.381Z,4.88
2023-04-18T12:18:05.860Z,6.13
2023-04-18T12:20:45.187Z,5.53
2023-04-18T12:23:36.340Z,4.63
2023-04-18T12:26:18.536Z,5.35
2023-04-18T12:31:11.968Z,5.50
2023-04-18T12:33:39.624Z,5.43
2023-04-18T12:36:06.578Z,6.15
2023-04-18T12:38:35.489Z,6.95
2023-04-18T12:41:03.144Z,5.63
2023-04-18T12:43:30.603Z,6.45
2023-04-18T12:45:59.598Z,5.93
2023-04-18T12:48:25.949Z,5.75
2023-04-18T12:50:52.232Z,6.35
2023-04-18T12:53:18.597Z,6.28
2023-04-18T12:55:44.886Z,6.10
2023-04-18T12:58:13.731Z,6.22
2023-04-18T13:00:40.114Z,6.70
2023-04-18T13:03:11.786Z,6.55
2023-04-18T13:05:39.473Z,6.25
2023-04-18T13:08:16.400Z,5.75
2023-04-18T13:10:44.995Z,6.38
2023-04-18T13:13:11.547Z,6.32
2023-04-18T13:15:38.423Z,6.78
2023-04-18T13:18:05.374Z,6.85
2023-04-18T13:20:33.002Z,5.93
2023-04-18T13:22:59.398Z,6.40
2023-04-18T13:25:25.784Z,6.43
2023-04-18T13:27:52.121Z,7.13
2023-04-18T13:30:18.708Z,7.20
2023-04-18T13:32:45.277Z,7.90
2023-04-18T13:35:11.742Z,6.72
2023-04-18T13:37:41.016Z,7.32
2023-04-18T13:40:08.083Z,6.78
2023-04-18T13:42:36.095Z,7.78
2023-04-18T13:45:03.906Z,6.72
2023-04-18T13:47:32.839Z,6.93
2023-04-18T13:49:59.426Z,7.07
2023-04-18T13:52:26.025Z,6.22
2023-04-18T13:54:52.381Z,6.82
2023-04-18T13:57:18.665Z,8.32
2023-04-18T13:59:45.001Z,7.07
2023-04-18T14:02:11.580Z,7.15
2023-04-18T14:04:41.354Z,6.80
2023-04-18T14:07:10.378Z,7.28
2023-04-18T14:09:40.560Z,7.07
2023-04-18T14:12:07.086Z,7.43
2023-04-18T14:14:33.777Z,6.43
2023-04-18T14:17:02.608Z,7.60
2023-04-18T14:19:28.945Z,7.45
2023-04-18T14:21:55.241Z,6.65
2023-04-18T14:24:21.599Z,6.97
2023-04-18T14:26:50.475Z,7.15
2023-04-18T14:29:16.891Z,6.25
2023-04-18T14:31:44.771Z,6.28
2023-04-18T14:34:11.324Z,7.75
2023-04-18T14:36:37.660Z,6.95
2023-04-18T14:39:05.898Z,6.70
2023-04-18T14:41:32.248Z,6.50
2023-04-18T14:43:59.135Z,7.55
2023-04-18T14:46:26.634Z,7.80
2023-04-18T14:48:52.967Z,7.75
2023-04-18T14:51:19.290Z,7.47
2023-04-18T14:53:50.530Z,7.38
2023-04-18T14:56:20.386Z,7.05
2023-04-18T14:58:46.756Z,7.07
2023-04-18T15:01:13.030Z,6.75
2023-04-18T15:03:40.162Z,6.88
2023-04-18T15:06:06.962Z,7.18
2023-04-18T15:08:33.266Z,7.40
2023-04-18T15:11:05.634Z,6.60
2023-04-18T15:13:33.162Z,7.65
2023-04-18T15:15:59.551Z,7.20
2023-04-18T15:18:25.864Z,7.60
2023-04-18T15:20:52.244Z,6.90
2023-04-18T15:23:18.562Z,6.78
2023-04-18T15:25:45.701Z,6.35
2023-04-18T15:28:13.117Z,7.43
2023-04-18T15:30:44.522Z,7.25
2023-04-18T15:33:11.112Z,6.63
2023-04-18T15:35:37.500Z,6.13
2023-04-18T15:38:06.550Z,6.65
2023-04-18T16:07:29.935Z,5.88
2023-04-18T16:09:56.242Z,6.60
2023-04-18T16:17:52.023Z,6.00
2023-04-18T16:20:18.430Z,5.88
2023-04-18T16:22:45.945Z,5.75
2023-04-18T16:25:15.735Z,6.05
2023-04-18T19:43:54.705Z,5.25
